sensor_id;sensor_type;location;lat;lon;timestamp;P1;durP1;ratioP1;P2;durP2;ratioP2
33794;SDS011;51430;52.242;21.118;2023-10-09T00:00:32;4.90;;;3.30;;
33794;SDS011;51430;52.242;21.118;2023-10-09T00:03:26;4.80;;;3.30;;
33794;SDS011;51430;52.242;21.118;2023-10-09T00:05:55;5.50;;;3.40;;
33794;SDS011;51430;52.242;21.118;2023-10-09T00:08:24;5.50;;;3.50;;
33794;SDS011;51430;52.242;21.118;2023-10-09T00:10:59;5.20;;;3.30;;
33794;SDS011;51430;52.242;21.118;2023-10-09T00:13:41;5.50;;;3.50;;
33794;SDS011;51430;52.242;21.118;2023-10-09T00:16:18;4.50;;;3.20;;
33794;SDS011;51430;52.242;21.118;2023-10-09T00:19:14;5.50;;;3.60;;
33794;SDS011;51430;52.242;21.118;2023-10-09T00:21:47;5.80;;;3.40;;
33794;SDS011;51430;52.242;21.118;2023-10-09T00:24:16;5.60;;;3.20;;
33794;SDS011;51430;52.242;21.118;2023-10-09T00:26:53;5.60;;;3.40;;
33794;SDS011;51430;52.242;21.118;2023-10-09T00:29:51;4.60;;;3.10;;
33794;SDS011;51430;52.242;21.118;2023-10-09T00:32:22;7.40;;;3.20;;
33794;SDS011;51430;52.242;21.118;2023-10-09T00:34:53;5.10;;;3.40;;
33794;SDS011;51430;52.242;21.118;2023-10-09T00:37:26;4.70;;;3.00;;
33794;SDS011;51430;52.242;21.118;2023-10-09T00:40:02;6.60;;;3.40;;
33794;SDS011;51430;52.242;21.118;2023-10-09T00:42:40;5.30;;;3.50;;
33794;SDS011;51430;52.242;21.118;2023-10-09T00:45:08;5.40;;;3.50;;
33794;SDS011;51430;52.242;21.118;2023-10-09T00:47:38;5.30;;;3.10;;
33794;SDS011;51430;52.242;21.118;2023-10-09T00:50:09;5.80;;;3.50;;
33794;SDS011;51430;52.242;21.118;2023-10-09T00:52:40;4.50;;;3.20;;
33794;SDS011;51430;52.242;21.118;2023-10-09T00:55:17;5.20;;;3.50;;
33794;SDS011;51430;52.242;21.118;2023-10-09T00:58:05;5.80;;;3.30;;
33794;SDS011;51430;52.242;21.118;2023-10-09T01:00:40;4.60;;;3.20;;
33794;SDS011;51430;52.242;21.118;2023-10-09T01:03:12;5.20;;;3.50;;
33794;SDS011;51430;52.242;21.118;2023-10-09T01:05:51;5.50;;;3.50;;
33794;SDS011;51430;52.242;21.118;2023-10-09T01:08:38;5.00;;;3.50;;
33794;SDS011;51430;52.242;21.118;2023-10-09T01:11:09;5.40;;;3.80;;
33794;SDS011;51430;52.242;21.118;2023-10-09T01:13:39;5.00;;;3.40;;
33794;SDS011;51430;52.242;21.118;2023-10-09T01:16:28;5.20;;;3.60;;
33794;SDS011;51430;52.242;21.118;2023-10-09T01:18:59;5.40;;;3.70;;
33794;SDS011;51430;52.242;21.118;2023-10-09T01:21:27;5.30;;;3.60;;
33794;SDS011;51430;52.242;21.118;2023-10-09T01:23:59;6.30;;;3.30;;
33794;SDS011;51430;52.242;21.118;2023-10-09T01:26:31;6.10;;;3.40;;
33794;SDS011;51430;52.242;21.118;2023-10-09T01:29:08;6.80;;;3.40;;
33794;SDS011;51430;52.242;21.118;2023-10-09T01:31:43;5.10;;;3.30;;
33794;SDS011;51430;52.242;21.118;2023-10-09T01:34:29;5.80;;;3.50;;
33794;SDS011;51430;52.242;21.118;2023-10-09T01:37:19;5.20;;;3.40;;
33794;SDS011;51430;52.242;21.118;2023-10-09T01:39:54;5.40;;;3.30;;
33794;SDS011;51430;52.242;21.118;2023-10-09T01:42:27;3.70;;;3.10;;
33794;SDS011;51430;52.242;21.118;2023-10-09T01:44:57;5.10;;;3.60;;
33794;SDS011;51430;52.242;21.118;2023-10-09T01:47:27;4.80;;;3.30;;
33794;SDS011;51430;52.242;21.118;2023-10-09T01:49:59;5.20;;;3.10;;
33794;SDS011;51430;52.242;21.118;2023-10-09T01:52:32;4.20;;;3.30;;
33794;SDS011;51430;52.242;21.118;2023-10-09T01:55:05;4.70;;;3.30;;
33794;SDS011;51430;52.242;21.118;2023-10-09T01:57:37;5.50;;;3.10;;
33794;SDS011;51430;52.242;21.118;2023-10-09T02:00:07;4.30;;;3.20;;
33794;SDS011;51430;52.242;21.118;2023-10-09T02:02:35;5.60;;;3.10;;
33794;SDS011;51430;52.242;21.118;2023-10-09T02:05:05;6.00;;;3.40;;
33794;SDS011;51430;52.242;21.118;2023-10-09T02:07:42;5.80;;;3.60;;
33794;SDS011;51430;52.242;21.118;2023-10-09T02:10:23;4.70;;;3.20;;
33794;SDS011;51430;52.242;21.118;2023-10-09T02:13:01;5.30;;;3.40;;
33794;SDS011;51430;52.242;21.118;2023-10-09T02:15:37;4.70;;;3.10;;
33794;SDS011;51430;52.242;21.118;2023-10-09T02:23:30;5.00;;;3.20;;
33794;SDS011;51430;52.242;21.118;2023-10-09T02:26:15;5.90;;;3.60;;
33794;SDS011;51430;52.242;21.118;2023-10-09T02:28:56;4.80;;;3.20;;
33794;SDS011;51430;52.242;21.118;2023-10-09T02:31:31;4.40;;;3.40;;
33794;SDS011;51430;52.242;21.118;2023-10-09T02:34:09;6.30;;;3.60;;
33794;SDS011;51430;52.242;21.118;2023-10-09T02:36:43;7.00;;;3.70;;
33794;SDS011;51430;52.242;21.118;2023-10-09T02:39:16;6.70;;;3.80;;
33794;SDS011;51430;52.242;21.118;2023-10-09T02:41:54;5.50;;;3.70;;
33794;SDS011;51430;52.242;21.118;2023-10-09T02:44:29;5.10;;;3.60;;
33794;SDS011;51430;52.242;21.118;2023-10-09T02:47:00;5.70;;;3.70;;
33794;SDS011;51430;52.242;21.118;2023-10-09T02:49:33;6.30;;;4.10;;
33794;SDS011;51430;52.242;21.118;2023-10-09T02:52:01;6.40;;;4.10;;
33794;SDS011;51430;52.242;21.118;2023-10-09T02:54:34;6.60;;;3.80;;
33794;SDS011;51430;52.242;21.118;2023-10-09T02:57:09;6.20;;;4.00;;
33794;SDS011;51430;52.242;21.118;2023-10-09T02:59:44;6.90;;;4.20;;
33794;SDS011;51430;52.242;21.118;2023-10-09T03:02:13;5.60;;;4.00;;
33794;SDS011;51430;52.242;21.118;2023-10-09T03:04:41;6.90;;;4.00;;
33794;SDS011;51430;52.242;21.118;2023-10-09T03:07:09;5.30;;;3.70;;
33794;SDS011;51430;52.242;21.118;2023-10-09T03:09:38;7.00;;;4.20;;
33794;SDS011;51430;52.242;21.118;2023-10-09T03:12:06;5.70;;;4.00;;
33794;SDS011;51430;52.242;21.118;2023-10-09T03:14:37;5.80;;;4.00;;
33794;SDS011;51430;52.242;21.118;2023-10-09T03:17:06;6.00;;;4.10;;
33794;SDS011;51430;52.242;21.118;2023-10-09T03:19:40;6.10;;;4.20;;
33794;SDS011;51430;52.242;21.118;2023-10-09T03:22:11;6.90;;;4.10;;
33794;SDS011;51430;52.242;21.118;2023-10-09T03:24:39;5.90;;;4.10;;
33794;SDS011;51430;52.242;21.118;2023-10-09T03:27:17;5.50;;;4.00;;
33794;SDS011;51430;52.242;21.118;2023-10-09T03:29:46;6.40;;;4.20;;
33794;SDS011;51430;52.242;21.118;2023-10-09T03:32:18;5.40;;;4.20;;
33794;SDS011;51430;52.242;21.118;2023-10-09T03:34:47;6.90;;;4.10;;
33794;SDS011;51430;52.242;21.118;2023-10-09T03:37:19;7.00;;;4.10;;
33794;SDS011;51430;52.242;21.118;2023-10-09T03:39:56;6.90;;;4.00;;
33794;SDS011;51430;52.242;21.118;2023-10-09T03:42:24;6.30;;;4.20;;
33794;SDS011;51430;52.242;21.118;2023-10-09T03:44:52;5.40;;;3.90;;
33794;SDS011;51430;52.242;21.118;2023-10-09T03:47:22;7.70;;;4.10;;
33794;SDS011;51430;52.242;21.118;2023-10-09T03:49:55;6.70;;;4.30;;
33794;SDS011;51430;52.242;21.118;2023-10-09T03:52:23;5.20;;;3.90;;
33794;SDS011;51430;52.242;21.118;2023-10-09T03:54:55;5.00;;;4.10;;
33794;SDS011;51430;52.242;21.118;2023-10-09T03:57:23;5.90;;;4.30;;
33794;SDS011;51430;52.242;21.118;2023-10-09T03:59:52;6.60;;;4.00;;
33794;SDS011;51430;52.242;21.118;2023-10-09T04:02:22;5.80;;;4.00;;
33794;SDS011;51430;52.242;21.118;2023-10-09T04:04:51;5.80;;;4.40;;
33794;SDS011;51430;52.242;21.118;2023-10-09T04:07:19;6.10;;;4.00;;
33794;SDS011;51430;52.242;21.118;2023-10-09T04:09:49;5.60;;;3.90;;
33794;SDS011;51430;52.242;21.118;2023-10-09T04:12:37;6.60;;;3.90;;
33794;SDS011;51430;52.242;21.118;2023-10-09T04:15:07;5.40;;;4.00;;
33794;SDS011;51430;52.242;21.118;2023-10-09T04:17:42;5.90;;;4.20;;
33794;SDS011;51430;52.242;21.118;2023-10-09T04:20:11;6.00;;;4.50;;
33794;SDS011;51430;52.242;21.118;2023-10-09T04:22:48;6.20;;;4.00;;
33794;SDS011;51430;52.242;21.118;2023-10-09T04:25:19;6.30;;;4.70;;
33794;SDS011;51430;52.242;21.118;2023-10-09T04:27:57;6.60;;;4.10;;
33794;SDS011;51430;52.242;21.118;2023-10-09T04:30:42;5.20;;;4.20;;
33794;SDS011;51430;52.242;21.118;2023-10-09T04:33:15;6.40;;;4.50;;
33794;SDS011;51430;52.242;21.118;2023-10-09T04:36:01;6.40;;;4.40;;
33794;SDS011;51430;52.242;21.118;2023-10-09T04:38:49;7.60;;;4.70;;
33794;SDS011;51430;52.242;21.118;2023-10-09T04:41:40;7.50;;;5.00;;
33794;SDS011;51430;52.242;21.118;2023-10-09T04:44:09;7.40;;;4.30;;
33794;SDS011;51430;52.242;21.118;2023-10-09T04:46:49;5.60;;;4.60;;
33794;SDS011;51430;52.242;21.118;2023-10-09T04:49:41;6.20;;;4.30;;
33794;SDS011;51430;52.242;21.118;2023-10-09T04:52:15;6.60;;;4.10;;
33794;SDS011;51430;52.242;21.118;2023-10-09T04:55:07;9.00;;;4.80;;
33794;SDS011;51430;52.242;21.118;2023-10-09T04:57:36;7.50;;;4.30;;
33794;SDS011;51430;52.242;21.118;2023-10-09T05:00:12;6.90;;;4.50;;
33794;SDS011;51430;52.242;21.118;2023-10-09T05:02:54;6.30;;;4.60;;
33794;SDS011;51430;52.242;21.118;2023-10-09T05:05:49;7.10;;;4.90;;
33794;SDS011;51430;52.242;21.118;2023-10-09T05:08:26;6.70;;;4.50;;
33794;SDS011;51430;52.242;21.118;2023-10-09T05:10:55;6.80;;;4.60;;
33794;SDS011;51430;52.242;21.118;2023-10-09T05:16:16;7.10;;;5.10;;
33794;SDS011;51430;52.242;21.118;2023-10-09T05:19:01;8.90;;;5.10;;
33794;SDS011;51430;52.242;21.118;2023-10-09T05:21:36;7.10;;;4.80;;
33794;SDS011;51430;52.242;21.118;2023-10-09T05:24:10;8.00;;;5.10;;
33794;SDS011;51430;52.242;21.118;2023-10-09T05:26:43;11.80;;;5.20;;
33794;SDS011;51430;52.242;21.118;2023-10-09T05:34:42;8.90;;;5.30;;
33794;SDS011;51430;52.242;21.118;2023-10-09T05:37:32;7.60;;;5.00;;
33794;SDS011;51430;52.242;21.118;2023-10-09T05:40:03;9.00;;;5.20;;
33794;SDS011;51430;52.242;21.118;2023-10-09T05:42:45;6.90;;;5.10;;
33794;SDS011;51430;52.242;21.118;2023-10-09T05:45:26;6.60;;;4.80;;
33794;SDS011;51430;52.242;21.118;2023-10-09T05:48:33;10.40;;;5.70;;
33794;SDS011;51430;52.242;21.118;2023-10-09T05:51:06;14.10;;;6.00;;
33794;SDS011;51430;52.242;21.118;2023-10-09T05:53:37;9.10;;;5.20;;
33794;SDS011;51430;52.242;21.118;2023-10-09T05:56:12;11.10;;;5.60;;
33794;SDS011;51430;52.242;21.118;2023-10-09T05:58:59;9.60;;;5.70;;
33794;SDS011;51430;52.242;21.118;2023-10-09T06:01:45;10.80;;;5.30;;
33794;SDS011;51430;52.242;21.118;2023-10-09T06:04:32;11.50;;;5.50;;
33794;SDS011;51430;52.242;21.118;2023-10-09T06:07:22;9.80;;;5.50;;
33794;SDS011;51430;52.242;21.118;2023-10-09T06:10:13;10.90;;;5.50;;
33794;SDS011;51430;52.242;21.118;2023-10-09T06:12:46;9.80;;;5.20;;
33794;SDS011;51430;52.242;21.118;2023-10-09T06:15:21;10.20;;;5.20;;
33794;SDS011;51430;52.242;21.118;2023-10-09T06:18:08;6.90;;;5.00;;
33794;SDS011;51430;52.242;21.118;2023-10-09T06:21:00;9.40;;;5.20;;
33794;SDS011;51430;52.242;21.118;2023-10-09T06:23:36;10.80;;;5.20;;
33794;SDS011;51430;52.242;21.118;2023-10-09T06:26:23;8.80;;;5.20;;
33794;SDS011;51430;52.242;21.118;2023-10-09T06:28:52;8.50;;;5.50;;
33794;SDS011;51430;52.242;21.118;2023-10-09T06:31:38;10.20;;;5.10;;
33794;SDS011;51430;52.242;21.118;2023-10-09T06:34:27;8.00;;;5.00;;
33794;SDS011;51430;52.242;21.118;2023-10-09T06:37:03;9.30;;;5.20;;
33794;SDS011;51430;52.242;21.118;2023-10-09T06:39:45;10.50;;;5.10;;
33794;SDS011;51430;52.242;21.118;2023-10-09T06:42:38;9.10;;;5.00;;
33794;SDS011;51430;52.242;21.118;2023-10-09T06:45:12;8.80;;;5.10;;
33794;SDS011;51430;52.242;21.118;2023-10-09T06:47:46;8.40;;;4.90;;
33794;SDS011;51430;52.242;21.118;2023-10-09T06:50:35;8.80;;;5.10;;
33794;SDS011;51430;52.242;21.118;2023-10-09T06:53:22;10.00;;;5.00;;
33794;SDS011;51430;52.242;21.118;2023-10-09T06:55:56;10.60;;;5.20;;
33794;SDS011;51430;52.242;21.118;2023-10-09T06:58:33;9.30;;;5.10;;
33794;SDS011;51430;52.242;21.118;2023-10-09T07:01:10;9.50;;;4.90;;
33794;SDS011;51430;52.242;21.118;2023-10-09T07:03:53;8.70;;;5.00;;
33794;SDS011;51430;52.242;21.118;2023-10-09T07:06:21;8.70;;;4.70;;
33794;SDS011;51430;52.242;21.118;2023-10-09T07:08:53;9.90;;;4.90;;
33794;SDS011;51430;52.242;21.118;2023-10-09T07:11:34;9.20;;;5.00;;
33794;SDS011;51430;52.242;21.118;2023-10-09T07:17:08;8.30;;;4.70;;
33794;SDS011;51430;52.242;21.118;2023-10-09T07:20:12;9.70;;;4.80;;
33794;SDS011;51430;52.242;21.118;2023-10-09T07:22:58;13.00;;;4.80;;
33794;SDS011;51430;52.242;21.118;2023-10-09T07:29:03;9.30;;;4.10;;
33794;SDS011;51430;52.242;21.118;2023-10-09T07:31:49;9.40;;;4.60;;
33794;SDS011;51430;52.242;21.118;2023-10-09T07:34:24;10.70;;;5.10;;
33794;SDS011;51430;52.242;21.118;2023-10-09T07:36:59;7.10;;;4.90;;
33794;SDS011;51430;52.242;21.118;2023-10-09T07:39:31;8.50;;;4.90;;
33794;SDS011;51430;52.242;21.118;2023-10-09T07:42:06;7.80;;;4.90;;
33794;SDS011;51430;52.242;21.118;2023-10-09T07:44:47;9.90;;;4.60;;
33794;SDS011;51430;52.242;21.118;2023-10-09T07:47:20;9.90;;;5.00;;
33794;SDS011;51430;52.242;21.118;2023-10-09T07:50:11;8.90;;;4.80;;
33794;SDS011;51430;52.242;21.118;2023-10-09T07:52:39;8.00;;;4.40;;
33794;SDS011;51430;52.242;21.118;2023-10-09T07:55:12;10.80;;;4.80;;
33794;SDS011;51430;52.242;21.118;2023-10-09T07:57:53;8.60;;;4.80;;
33794;SDS011;51430;52.242;21.118;2023-10-09T08:00:21;7.40;;;4.70;;
33794;SDS011;51430;52.242;21.118;2023-10-09T08:03:16;8.80;;;5.00;;
33794;SDS011;51430;52.242;21.118;2023-10-09T08:05:52;7.90;;;4.60;;
33794;SDS011;51430;52.242;21.118;2023-10-09T08:08:21;9.80;;;4.80;;
33794;SDS011;51430;52.242;21.118;2023-10-09T08:11:08;9.80;;;4.80;;
33794;SDS011;51430;52.242;21.118;2023-10-09T08:13:55;9.00;;;4.70;;
33794;SDS011;51430;52.242;21.118;2023-10-09T08:16:23;8.00;;;4.80;;
33794;SDS011;51430;52.242;21.118;2023-10-09T08:18:54;8.60;;;4.70;;
33794;SDS011;51430;52.242;21.118;2023-10-09T08:21:25;6.70;;;4.40;;
33794;SDS011;51430;52.242;21.118;2023-10-09T08:24:25;11.90;;;4.70;;
33794;SDS011;51430;52.242;21.118;2023-10-09T08:27:17;7.20;;;4.40;;
33794;SDS011;51430;52.242;21.118;2023-10-09T08:30:01;9.80;;;5.20;;
33794;SDS011;51430;52.242;21.118;2023-10-09T08:32:46;9.00;;;4.70;;
33794;SDS011;51430;52.242;21.118;2023-10-09T08:35:36;11.10;;;5.10;;
33794;SDS011;51430;52.242;21.118;2023-10-09T08:38:31;11.30;;;5.00;;
33794;SDS011;51430;52.242;21.118;2023-10-09T08:41:08;6.80;;;4.60;;
33794;SDS011;51430;52.242;21.118;2023-10-09T08:43:49;8.60;;;4.80;;
33794;SDS011;51430;52.242;21.118;2023-10-09T08:46:25;8.40;;;4.50;;
33794;SDS011;51430;52.242;21.118;2023-10-09T08:48:56;8.00;;;4.30;;
33794;SDS011;51430;52.242;21.118;2023-10-09T08:51:27;8.20;;;4.60;;
33794;SDS011;51430;52.242;21.118;2023-10-09T08:53:57;8.90;;;4.40;;
33794;SDS011;51430;52.242;21.118;2023-10-09T08:56:25;9.50;;;4.30;;
33794;SDS011;51430;52.242;21.118;2023-10-09T08:58:59;6.20;;;3.90;;
33794;SDS011;51430;52.242;21.118;2023-10-09T09:01:29;8.60;;;4.10;;
33794;SDS011;51430;52.242;21.118;2023-10-09T09:04:00;7.80;;;4.10;;
33794;SDS011;51430;52.242;21.118;2023-10-09T09:06:36;10.80;;;4.40;;
33794;SDS011;51430;52.242;21.118;2023-10-09T09:09:12;7.30;;;4.10;;
33794;SDS011;51430;52.242;21.118;2023-10-09T09:11:43;8.30;;;4.00;;
33794;SDS011;51430;52.242;21.118;2023-10-09T09:14:17;7.30;;;3.90;;
33794;SDS011;51430;52.242;21.118;2023-10-09T09:16:49;7.30;;;4.20;;
33794;SDS011;51430;52.242;21.118;2023-10-09T09:19:20;6.50;;;3.70;;
33794;SDS011;51430;52.242;21.118;2023-10-09T09:21:59;7.90;;;3.90;;
33794;SDS011;51430;52.242;21.118;2023-10-09T09:24:39;7.40;;;3.90;;
33794;SDS011;51430;52.242;21.118;2023-10-09T09:27:15;8.80;;;4.20;;
33794;SDS011;51430;52.242;21.118;2023-10-09T09:29:46;8.20;;;4.10;;
33794;SDS011;51430;52.242;21.118;2023-10-09T09:32:28;8.10;;;3.60;;
33794;SDS011;51430;52.242;21.118;2023-10-09T09:35:11;7.90;;;3.90;;
33794;SDS011;51430;52.242;21.118;2023-10-09T09:37:53;7.00;;;4.00;;
33794;SDS011;51430;52.242;21.118;2023-10-09T09:40:22;7.60;;;4.10;;
33794;SDS011;51430;52.242;21.118;2023-10-09T09:43:09;4.20;;;3.20;;
33794;SDS011;51430;52.242;21.118;2023-10-09T09:45:49;7.60;;;3.40;;
33794;SDS011;51430;52.242;21.118;2023-10-09T09:48:18;6.50;;;2.90;;
33794;SDS011;51430;52.242;21.118;2023-10-09T09:50:46;4.20;;;2.90;;
33794;SDS011;51430;52.242;21.118;2023-10-09T09:53:15;6.90;;;3.20;;
33794;SDS011;51430;52.242;21.118;2023-10-09T09:55:52;5.30;;;3.20;;
33794;SDS011;51430;52.242;21.118;2023-10-09T09:58:25;7.00;;;3.30;;
33794;SDS011;51430;52.242;21.118;2023-10-09T10:01:04;4.50;;;3.20;;
33794;SDS011;51430;52.242;21.118;2023-10-09T10:04:05;5.90;;;2.70;;
33794;SDS011;51430;52.242;21.118;2023-10-09T10:06:43;7.20;;;3.10;;
33794;SDS011;51430;52.242;21.118;2023-10-09T10:12:09;4.70;;;2.70;;
33794;SDS011;51430;52.242;21.118;2023-10-09T10:14:51;5.30;;;2.70;;
33794;SDS011;51430;52.242;21.118;2023-10-09T10:17:20;4.00;;;2.70;;
33794;SDS011;51430;52.242;21.118;2023-10-09T10:22:49;7.20;;;2.70;;
33794;SDS011;51430;52.242;21.118;2023-10-09T10:31:10;5.50;;;2.50;;
33794;SDS011;51430;52.242;21.118;2023-10-09T10:36:23;4.20;;;2.50;;
33794;SDS011;51430;52.242;21.118;2023-10-09T10:38:59;5.10;;;2.60;;
33794;SDS011;51430;52.242;21.118;2023-10-09T10:41:53;4.50;;;2.60;;
33794;SDS011;51430;52.242;21.118;2023-10-09T10:44:40;5.80;;;3.00;;
33794;SDS011;51430;52.242;21.118;2023-10-09T10:47:12;5.70;;;3.10;;
33794;SDS011;51430;52.242;21.118;2023-10-09T10:50:03;4.40;;;2.90;;
33794;SDS011;51430;52.242;21.118;2023-10-09T10:53:11;4.30;;;2.80;;
33794;SDS011;51430;52.242;21.118;2023-10-09T10:56:00;5.00;;;2.70;;
33794;SDS011;51430;52.242;21.118;2023-10-09T10:58:41;5.60;;;2.70;;
33794;SDS011;51430;52.242;21.118;2023-10-09T11:01:22;4.40;;;2.80;;
33794;SDS011;51430;52.242;21.118;2023-10-09T11:03:53;6.20;;;2.80;;
33794;SDS011;51430;52.242;21.118;2023-10-09T11:06:27;6.60;;;2.90;;
33794;SDS011;51430;52.242;21.118;2023-10-09T11:09:06;4.20;;;2.60;;
33794;SDS011;51430;52.242;21.118;2023-10-09T11:12:18;5.90;;;2.70;;
33794;SDS011;51430;52.242;21.118;2023-10-09T11:14:50;5.50;;;2.40;;
33794;SDS011;51430;52.242;21.118;2023-10-09T11:17:35;6.20;;;2.70;;
33794;SDS011;51430;52.242;21.118;2023-10-09T11:20:06;5.80;;;2.50;;
33794;SDS011;51430;52.242;21.118;2023-10-09T11:22:53;4.50;;;2.30;;
33794;SDS011;51430;52.242;21.118;2023-10-09T11:25:43;5.40;;;2.60;;
33794;SDS011;51430;52.242;21.118;2023-10-09T11:28:35;4.30;;;2.40;;
33794;SDS011;51430;52.242;21.118;2023-10-09T11:31:32;4.30;;;2.40;;
33794;SDS011;51430;52.242;21.118;2023-10-09T11:34:01;4.80;;;2.40;;
33794;SDS011;51430;52.242;21.118;2023-10-09T11:36:33;4.00;;;2.50;;
33794;SDS011;51430;52.242;21.118;2023-10-09T11:39:02;3.50;;;2.50;;
33794;SDS011;51430;52.242;21.118;2023-10-09T11:41:50;4.60;;;2.60;;
33794;SDS011;51430;52.242;21.118;2023-10-09T11:44:34;4.10;;;2.30;;
33794;SDS011;51430;52.242;21.118;2023-10-09T11:47:07;2.70;;;2.20;;
33794;SDS011;51430;52.242;21.118;2023-10-09T11:50:02;3.60;;;2.50;;
33794;SDS011;51430;52.242;21.118;2023-10-09T11:52:55;4.40;;;2.50;;
33794;SDS011;51430;52.242;21.118;2023-10-09T11:55:36;6.40;;;2.50;;
33794;SDS011;51430;52.242;21.118;2023-10-09T11:58:05;4.20;;;2.40;;
33794;SDS011;51430;52.242;21.118;2023-10-09T12:00:34;3.30;;;2.30;;
33794;SDS011;51430;52.242;21.118;2023-10-09T12:10:31;3.00;;;2.00;;
33794;SDS011;51430;52.242;21.118;2023-10-09T12:13:01;4.40;;;2.30;;
33794;SDS011;51430;52.242;21.118;2023-10-09T12:15:32;4.10;;;2.30;;
33794;SDS011;51430;52.242;21.118;2023-10-09T12:18:09;2.80;;;2.20;;
33794;SDS011;51430;52.242;21.118;2023-10-09T12:20:42;4.70;;;2.30;;
33794;SDS011;51430;52.242;21.118;2023-10-09T12:23:19;2.90;;;2.30;;
33794;SDS011;51430;52.242;21.118;2023-10-09T12:25:49;4.80;;;2.50;;
33794;SDS011;51430;52.242;21.118;2023-10-09T12:28:18;4.10;;;2.60;;
33794;SDS011;51430;52.242;21.118;2023-10-09T12:30:49;4.70;;;2.90;;
33794;SDS011;51430;52.242;21.118;2023-10-09T12:33:20;5.80;;;3.00;;
33794;SDS011;51430;52.242;21.118;2023-10-09T12:35:58;3.40;;;2.90;;
33794;SDS011;51430;52.242;21.118;2023-10-09T12:38:29;4.30;;;3.20;;
33794;SDS011;51430;52.242;21.118;2023-10-09T12:41:03;6.30;;;3.10;;
33794;SDS011;51430;52.242;21.118;2023-10-09T12:43:54;3.90;;;3.20;;
33794;SDS011;51430;52.242;21.118;2023-10-09T12:46:26;4.60;;;3.30;;
33794;SDS011;51430;52.242;21.118;2023-10-09T12:48:55;4.50;;;3.50;;
33794;SDS011;51430;52.242;21.118;2023-10-09T12:51:23;4.30;;;3.50;;
33794;SDS011;51430;52.242;21.118;2023-10-09T12:53:58;5.50;;;3.60;;
33794;SDS011;51430;52.242;21.118;2023-10-09T12:56:26;6.10;;;3.80;;
33794;SDS011;51430;52.242;21.118;2023-10-09T12:59:01;5.30;;;3.90;;
33794;SDS011;51430;52.242;21.118;2023-10-09T13:01:32;6.80;;;4.10;;
33794;SDS011;51430;52.242;21.118;2023-10-09T13:04:14;4.90;;;3.90;;
33794;SDS011;51430;52.242;21.118;2023-10-09T13:06:45;5.90;;;4.20;;
33794;SDS011;51430;52.242;21.118;2023-10-09T13:09:15;6.00;;;4.20;;
33794;SDS011;51430;52.242;21.118;2023-10-09T13:11:52;6.30;;;4.10;;
33794;SDS011;51430;52.242;21.118;2023-10-09T13:14:20;5.00;;;4.30;;
33794;SDS011;51430;52.242;21.118;2023-10-09T13:16:51;6.90;;;4.10;;
33794;SDS011;51430;52.242;21.118;2023-10-09T13:19:20;7.80;;;3.80;;
33794;SDS011;51430;52.242;21.118;2023-10-09T13:21:52;5.90;;;4.30;;
33794;SDS011;51430;52.242;21.118;2023-10-09T13:24:20;6.50;;;4.10;;
33794;SDS011;51430;52.242;21.118;2023-10-09T13:26:57;6.50;;;4.20;;
33794;SDS011;51430;52.242;21.118;2023-10-09T13:29:26;5.30;;;3.90;;
33794;SDS011;51430;52.242;21.118;2023-10-09T13:31:54;6.20;;;4.40;;
33794;SDS011;51430;52.242;21.118;2023-10-09T13:34:26;5.80;;;4.30;;
33794;SDS011;51430;52.242;21.118;2023-10-09T13:36:56;7.40;;;4.30;;
33794;SDS011;51430;52.242;21.118;2023-10-09T13:39:28;7.30;;;4.80;;
33794;SDS011;51430;52.242;21.118;2023-10-09T13:41:58;6.80;;;4.30;;
33794;SDS011;51430;52.242;21.118;2023-10-09T13:44:29;6.40;;;4.40;;
33794;SDS011;51430;52.242;21.118;2023-10-09T13:46:59;6.80;;;4.20;;
33794;SDS011;51430;52.242;21.118;2023-10-09T13:49:33;6.30;;;4.00;;
33794;SDS011;51430;52.242;21.118;2023-10-09T13:52:02;6.20;;;4.20;;
33794;SDS011;51430;52.242;21.118;2023-10-09T13:54:30;6.20;;;4.60;;
33794;SDS011;51430;52.242;21.118;2023-10-09T13:57:02;7.00;;;4.40;;
33794;SDS011;51430;52.242;21.118;2023-10-09T13:59:35;6.80;;;4.60;;
33794;SDS011;51430;52.242;21.118;2023-10-09T14:02:04;5.90;;;4.70;;
33794;SDS011;51430;52.242;21.118;2023-10-09T14:04:38;8.20;;;4.80;;
33794;SDS011;51430;52.242;21.118;2023-10-09T14:07:06;5.30;;;4.60;;
33794;SDS011;51430;52.242;21.118;2023-10-09T14:09:34;5.60;;;4.40;;
33794;SDS011;51430;52.242;21.118;2023-10-09T14:12:11;8.30;;;4.60;;
33794;SDS011;51430;52.242;21.118;2023-10-09T14:14:43;8.00;;;4.80;;
33794;SDS011;51430;52.242;21.118;2023-10-09T14:17:22;7.80;;;4.50;;
33794;SDS011;51430;52.242;21.118;2023-10-09T14:19:57;6.00;;;4.40;;
33794;SDS011;51430;52.242;21.118;2023-10-09T14:22:46;6.70;;;4.50;;
33794;SDS011;51430;52.242;21.118;2023-10-09T14:25:20;6.80;;;4.60;;
33794;SDS011;51430;52.242;21.118;2023-10-09T14:27:49;7.60;;;4.60;;
33794;SDS011;51430;52.242;21.118;2023-10-09T14:30:20;6.10;;;4.40;;
33794;SDS011;51430;52.242;21.118;2023-10-09T14:32:58;7.60;;;4.80;;
33794;SDS011;51430;52.242;21.118;2023-10-09T14:35:32;6.80;;;5.00;;
33794;SDS011;51430;52.242;21.118;2023-10-09T14:38:00;9.00;;;4.90;;
33794;SDS011;51430;52.242;21.118;2023-10-09T14:40:32;6.70;;;5.00;;
33794;SDS011;51430;52.242;21.118;2023-10-09T14:43:00;8.60;;;5.10;;
33794;SDS011;51430;52.242;21.118;2023-10-09T14:45:28;6.40;;;4.90;;
33794;SDS011;51430;52.242;21.118;2023-10-09T14:47:56;7.40;;;5.00;;
33794;SDS011;51430;52.242;21.118;2023-10-09T14:50:28;7.60;;;5.20;;
33794;SDS011;51430;52.242;21.118;2023-10-09T14:52:56;7.50;;;5.30;;
33794;SDS011;51430;52.242;21.118;2023-10-09T14:55:24;7.10;;;5.00;;
33794;SDS011;51430;52.242;21.118;2023-10-09T14:57:59;7.50;;;5.30;;
33794;SDS011;51430;52.242;21.118;2023-10-09T15:00:27;8.10;;;5.60;;
33794;SDS011;51430;52.242;21.118;2023-10-09T15:02:55;7.40;;;5.50;;
33794;SDS011;51430;52.242;21.118;2023-10-09T15:05:23;7.90;;;5.00;;
33794;SDS011;51430;52.242;21.118;2023-10-09T15:07:54;7.00;;;5.30;;
33794;SDS011;51430;52.242;21.118;2023-10-09T15:10:22;7.50;;;5.30;;
33794;SDS011;51430;52.242;21.118;2023-10-09T15:12:51;9.30;;;5.70;;
33794;SDS011;51430;52.242;21.118;2023-10-09T15:15:19;6.30;;;5.20;;
33794;SDS011;51430;52.242;21.118;2023-10-09T15:17:53;7.20;;;5.20;;
33794;SDS011;51430;52.242;21.118;2023-10-09T15:20:21;8.30;;;6.10;;
33794;SDS011;51430;52.242;21.118;2023-10-09T15:22:49;7.80;;;5.10;;
33794;SDS011;51430;52.242;21.118;2023-10-09T15:25:17;8.80;;;5.50;;
33794;SDS011;51430;52.242;21.118;2023-10-09T15:27:45;7.20;;;5.60;;
33794;SDS011;51430;52.242;21.118;2023-10-09T15:30:13;9.00;;;5.70;;
33794;SDS011;51430;52.242;21.118;2023-10-09T15:32:42;7.20;;;5.60;;
33794;SDS011;51430;52.242;21.118;2023-10-09T15:35:11;9.10;;;6.50;;
33794;SDS011;51430;52.242;21.118;2023-10-09T15:37:43;9.10;;;6.70;;
33794;SDS011;51430;52.242;21.118;2023-10-09T15:40:11;10.40;;;7.00;;
33794;SDS011;51430;52.242;21.118;2023-10-09T15:42:45;9.80;;;6.80;;
33794;SDS011;51430;52.242;21.118;2023-10-09T15:45:18;11.80;;;6.80;;
33794;SDS011;51430;52.242;21.118;2023-10-09T15:47:49;8.60;;;7.00;;
33794;SDS011;51430;52.242;21.118;2023-10-09T15:50:20;9.80;;;6.20;;
33794;SDS011;51430;52.242;21.118;2023-10-09T15:52:52;8.50;;;6.20;;
33794;SDS011;51430;52.242;21.118;2023-10-09T15:55:22;9.60;;;6.90;;
33794;SDS011;51430;52.242;21.118;2023-10-09T15:57:52;10.90;;;6.90;;
33794;SDS011;51430;52.242;21.118;2023-10-09T16:00:21;9.80;;;6.80;;
33794;SDS011;51430;52.242;21.118;2023-10-09T16:02:56;8.40;;;6.70;;
33794;SDS011;51430;52.242;21.118;2023-10-09T16:05:25;8.30;;;6.30;;